sensor_id;sensor_type;location;lat;lon;timestamp;pressure;altitude;pressure_sealevel;temperature;humidity
9249;BME280;4660;41.768;26.198;2023-05-07T00:01:04;101065.16;;;15.07;100.00
9249;BME280;4660;41.768;26.198;2023-05-07T00:03:32;101076.28;;;15.04;100.00
9249;BME280;4660;41.768;26.198;2023-05-07T00:05:58;101082.47;;;15.14;100.00
9249;BME280;4660;41.768;26.198;2023-05-07T00:08:23;101072.50;;;14.89;100.00
9249;BME280;4660;41.768;26.198;2023-05-07T00:10:49;101053.84;;;14.42;100.00
9249;BME280;4660;41.768;26.198;2023-05-07T00:13:15;101078.50;;;14.31;100.00
9249;BME280;4660;41.768;26.198;2023-05-07T00:15:41;101085.81;;;14.39;100.00
9249;BME280;4660;41.768;26.198;2023-05-07T00:18:06;101075.69;;;14.58;100.00
9249;BME280;4660;41.768;26.198;2023-05-07T00:20:31;101067.41;;;14.86;100.00
9249;BME280;4660;41.768;26.198;2023-05-07T00:22:57;101078.09;;;15.22;100.00
9249;BME280;4660;41.768;26.198;2023-05-07T00:25:23;101068.91;;;15.14;100.00
9249;BME280;4660;41.768;26.198;2023-05-07T00:27:48;101074.56;;;14.95;100.00
9249;BME280;4660;41.768;26.198;2023-05-07T00:30:14;101073.41;;;14.72;100.00
9249;BME280;4660;41.768;26.198;2023-05-07T00:32:40;101089.19;;;14.50;100.00
9249;BME280;4660;41.768;26.198;2023-05-07T00:35:06;101079.44;;;14.22;100.00
9249;BME280;4660;41.768;26.198;2023-05-07T00:37:32;101070.75;;;14.18;100.00
9249;BME280;4660;41.768;26.198;2023-05-07T00:39:57;101072.72;;;14.08;100.00
9249;BME280;4660;41.768;26.198;2023-05-07T00:42:23;101079.81;;;13.91;100.00
9249;BME280;4660;41.768;26.198;2023-05-07T00:44:49;101064.44;;;13.74;100.00
9249;BME280;4660;41.768;26.198;2023-05-07T00:47:15;101065.75;;;13.42;100.00
9249;BME280;4660;41.768;26.198;2023-05-07T00:49:43;101058.72;;;13.32;100.00
9249;BME280;4660;41.768;26.198;2023-05-07T00:52:15;101069.03;;;13.64;100.00
9249;BME280;4660;41.768;26.198;2023-05-07T00:54:41;101078.31;;;13.61;100.00
9249;BME280;4660;41.768;26.198;2023-05-07T00:57:09;101073.00;;;13.69;100.00
9249;BME280;4660;41.768;26.198;2023-05-07T00:59:36;101053.91;;;13.71;100.00
9249;BME280;4660;41.768;26.198;2023-05-07T01:02:02;101084.88;;;13.59;100.00
9249;BME280;4660;41.768;26.198;2023-05-07T01:04:27;101083.03;;;13.59;100.00
9249;BME280;4660;41.768;26.198;2023-05-07T01:06:57;101093.00;;;13.59;100.00
9249;BME280;4660;41.768;26.198;2023-05-07T01:09:24;101083.06;;;13.32;100.00
9249;BME280;4660;41.768;26.198;2023-05-07T01:11:50;101081.38;;;13.21;100.00
9249;BME280;4660;41.768;26.198;2023-05-07T01:14:17;101079.03;;;12.99;100.00
9249;BME280;4660;41.768;26.198;2023-05-07T01:16:43;101086.31;;;12.88;100.00
9249;BME280;4660;41.768;26.198;2023-05-07T01:19:11;101080.28;;;12.67;100.00
9249;BME280;4660;41.768;26.198;2023-05-07T01:21:46;101082.56;;;12.62;100.00
9249;BME280;4660;41.768;26.198;2023-05-07T01:24:12;101088.66;;;12.64;100.00
9249;BME280;4660;41.768;26.198;2023-05-07T01:26:38;101076.88;;;12.65;100.00
9249;BME280;4660;41.768;26.198;2023-05-07T01:29:04;101069.25;;;12.51;100.00
9249;BME280;4660;41.768;26.198;2023-05-07T01:31:29;101077.16;;;12.62;100.00
9249;BME280;4660;41.768;26.198;2023-05-07T01:33:56;101054.88;;;12.60;100.00
9249;BME280;4660;41.768;26.198;2023-05-07T01:36:25;101061.81;;;12.72;100.00
9249;BME280;4660;41.768;26.198;2023-05-07T01:38:52;101080.69;;;12.72;100.00
9249;BME280;4660;41.768;26.198;2023-05-07T01:41:19;101080.31;;;12.48;100.00
9249;BME280;4660;41.768;26.198;2023-05-07T01:43:46;101052.09;;;12.23;100.00
9249;BME280;4660;41.768;26.198;2023-05-07T01:46:12;101069.53;;;12.38;100.00
9249;BME280;4660;41.768;26.198;2023-05-07T01:48:38;101081.16;;;12.48;100.00
9249;BME280;4660;41.768;26.198;2023-05-07T01:51:04;101084.31;;;12.44;100.00
9249;BME280;4660;41.768;26.198;2023-05-07T01:53:38;101081.47;;;12.35;100.00
9249;BME280;4660;41.768;26.198;2023-05-07T01:56:04;101072.22;;;12.28;100.00
9249;BME280;4660;41.768;26.198;2023-05-07T01:58:30;101075.66;;;12.11;100.00
9249;BME280;4660;41.768;26.198;2023-05-07T02:00:56;101074.66;;;12.31;100.00
9249;BME280;4660;41.768;26.198;2023-05-07T02:03:21;101062.31;;;12.19;100.00
9249;BME280;4660;41.768;26.198;2023-05-07T02:05:47;101076.50;;;12.21;100.00
9249;BME280;4660;41.768;26.198;2023-05-07T02:08:12;101073.81;;;12.21;100.00
9249;BME280;4660;41.768;26.198;2023-05-07T02:10:38;101058.63;;;12.30;100.00
9249;BME280;4660;41.768;26.198;2023-05-07T02:13:04;101069.53;;;12.38;100.00
9249;BME280;4660;41.768;26.198;2023-05-07T02:15:30;101056.31;;;12.45;100.00
9249;BME280;4660;41.768;26.198;2023-05-07T02:18:00;101062.56;;;12.45;100.00
9249;BME280;4660;41.768;26.198;2023-05-07T02:20:26;101058.63;;;12.20;100.00
9249;BME280;4660;41.768;26.198;2023-05-07T02:22:52;101064.88;;;12.11;100.00
9249;BME280;4660;41.768;26.198;2023-05-07T02:25:17;101071.13;;;12.02;100.00
9249;BME280;4660;41.768;26.198;2023-05-07T02:27:43;101066.00;;;11.89;100.00
9249;BME280;4660;41.768;26.198;2023-05-07T02:30:09;101052.47;;;11.70;100.00
9249;BME280;4660;41.768;26.198;2023-05-07T02:32:34;101061.34;;;11.81;100.00
9249;BME280;4660;41.768;26.198;2023-05-07T02:35:00;101047.13;;;11.79;100.00
9249;BME280;4660;41.768;26.198;2023-05-07T02:37:26;101059.88;;;11.77;100.00
9249;BME280;4660;41.768;26.198;2023-05-07T02:39:51;101058.16;;;11.67;100.00
9249;BME280;4660;41.768;26.198;2023-05-07T02:42:17;101065.25;;;11.68;100.00
9249;BME280;4660;41.768;26.198;2023-05-07T02:44:42;101067.66;;;11.71;100.00
9249;BME280;4660;41.768;26.198;2023-05-07T02:47:08;101063.81;;;11.64;100.00
9249;BME280;4660;41.768;26.198;2023-05-07T02:49:34;101066.81;;;11.61;100.00
9249;BME280;4660;41.768;26.198;2023-05-07T02:52:00;101060.97;;;11.46;100.00
9249;BME280;4660;41.768;26.198;2023-05-07T02:54:25;101058.06;;;11.28;100.00
9249;BME280;4660;41.768;26.198;2023-05-07T02:56:51;101069.16;;;11.35;100.00
9249;BME280;4660;41.768;26.198;2023-05-07T02:59:16;101060.91;;;11.26;100.00
9249;BME280;4660;41.768;26.198;2023-05-07T03:01:42;101076.22;;;11.26;100.00
9249;BME280;4660;41.768;26.198;2023-05-07T03:04:10;101059.50;;;11.22;100.00
9249;BME280;4660;41.768;26.198;2023-05-07T03:06:36;101076.22;;;11.36;100.00
9249;BME280;4660;41.768;26.198;2023-05-07T03:09:01;101062.06;;;11.34;100.00
9249;BME280;4660;41.768;26.198;2023-05-07T03:11:27;101066.97;;;11.19;100.00
9249;BME280;4660;41.768;26.198;2023-05-07T03:13:53;101073.97;;;11.31;100.00
9249;BME280;4660;41.768;26.198;2023-05-07T03:16:18;101062.97;;;11.13;100.00
9249;BME280;4660;41.768;26.198;2023-05-07T03:18:44;101061.25;;;11.02;100.00
9249;BME280;4660;41.768;26.198;2023-05-07T03:21:09;101075.56;;;11.03;100.00
9249;BME280;4660;41.768;26.198;2023-05-07T03:23:35;101071.88;;;11.04;100.00
9249;BME280;4660;41.768;26.198;2023-05-07T03:26:01;101081.53;;;11.07;100.00
9249;BME280;4660;41.768;26.198;2023-05-07T03:28:27;101070.63;;;11.08;100.00
9249;BME280;4660;41.768;26.198;2023-05-07T03:30:52;101086.97;;;11.16;100.00
9249;BME280;4660;41.768;26.198;2023-05-07T03:33:18;101086.53;;;11.21;100.00
9249;BME280;4660;41.768;26.198;2023-05-07T03:35:43;101091.25;;;11.28;100.00
9249;BME280;4660;41.768;26.198;2023-05-07T03:38:09;101086.47;;;11.42;100.00
9249;BME280;4660;41.768;26.198;2023-05-07T03:40:34;101083.06;;;11.49;100.00
9249;BME280;4660;41.768;26.198;2023-05-07T03:43:00;101101.44;;;11.65;100.00
9249;BME280;4660;41.768;26.198;2023-05-07T03:45:26;101080.56;;;11.67;100.00
9249;BME280;4660;41.768;26.198;2023-05-07T03:47:51;101098.94;;;11.83;100.00
9249;BME280;4660;41.768;26.198;2023-05-07T03:50:17;101092.19;;;11.58;100.00
9249;BME280;4660;41.768;26.198;2023-05-07T03:52:42;101085.31;;;11.35;100.00
9249;BME280;4660;41.768;26.198;2023-05-07T03:55:08;101106.47;;;11.39;100.00
9249;BME280;4660;41.768;26.198;2023-05-07T03:57:34;101097.22;;;11.32;100.00
9249;BME280;4660;41.768;26.198;2023-05-07T03:59:59;101102.06;;;11.38;100.00
9249;BME280;4660;41.768;26.198;2023-05-07T04:02:25;101107.75;;;11.45;100.00
9249;BME280;4660;41.768;26.198;2023-05-07T04:04:50;101121.41;;;11.53;100.00
9249;BME280;4660;41.768;26.198;2023-05-07T04:07:16;101117.41;;;11.47;100.00
9249;BME280;4660;41.768;26.198;2023-05-07T04:09:42;101120.16;;;11.76;100.00
9249;BME280;4660;41.768;26.198;2023-05-07T04:12:08;101116.94;;;11.82;100.00
9249;BME280;4660;41.768;26.198;2023-05-07T04:14:33;101115.09;;;11.83;100.00
9249;BME280;4660;41.768;26.198;2023-05-07T04:16:59;101120.03;;;11.78;100.00
9249;BME280;4660;41.768;26.198;2023-05-07T04:19:24;101130.47;;;12.02;100.00
9249;BME280;4660;41.768;26.198;2023-05-07T04:21:50;101132.28;;;12.21;100.00
9249;BME280;4660;41.768;26.198;2023-05-07T04:24:15;101143.09;;;12.40;100.00
9249;BME280;4660;41.768;26.198;2023-05-07T04:26:41;101142.38;;;12.48;100.00
9249;BME280;4660;41.768;26.198;2023-05-07T04:29:07;101144.09;;;12.29;100.00
9249;BME280;4660;41.768;26.198;2023-05-07T04:31:33;101128.59;;;12.12;100.00
9249;BME280;4660;41.768;26.198;2023-05-07T04:33:59;101154.16;;;12.27;100.00
9249;BME280;4660;41.768;26.198;2023-05-07T04:36:25;101141.41;;;12.29;100.00
9249;BME280;4660;41.768;26.198;2023-05-07T04:38:53;101148.34;;;12.42;100.00
9249;BME280;4660;41.768;26.198;2023-05-07T04:41:19;101156.75;;;12.58;100.00
9249;BME280;4660;41.768;26.198;2023-05-07T04:43:45;101133.44;;;12.37;100.00
9249;BME280;4660;41.768;26.198;2023-05-07T04:46:11;101174.34;;;12.72;100.00
9249;BME280;4660;41.768;26.198;2023-05-07T04:48:37;101162.81;;;12.79;100.00
9249;BME280;4660;41.768;26.198;2023-05-07T04:51:02;101169.69;;;13.11;100.00
9249;BME280;4660;41.768;26.198;2023-05-07T04:53:28;101170.53;;;13.11;100.00
9249;BME280;4660;41.768;26.198;2023-05-07T04:55:57;101179.66;;;13.20;100.00
9249;BME280;4660;41.768;26.198;2023-05-07T04:58:23;101168.38;;;13.34;100.00
9249;BME280;4660;41.768;26.198;2023-05-07T05:00:49;101162.09;;;13.34;100.00
9249;BME280;4660;41.768;26.198;2023-05-07T05:03:15;101173.63;;;13.63;100.00
9249;BME280;4660;41.768;26.198;2023-05-07T05:05:40;101175.31;;;13.74;100.00
9249;BME280;4660;41.768;26.198;2023-05-07T05:08:06;101151.56;;;13.68;100.00
9249;BME280;4660;41.768;26.198;2023-05-07T05:10:32;101183.25;;;14.03;100.00
9249;BME280;4660;41.768;26.198;2023-05-07T05:12:57;101170.09;;;13.90;100.00
9249;BME280;4660;41.768;26.198;2023-05-07T05:15:23;101165.59;;;13.99;100.00
9249;BME280;4660;41.768;26.198;2023-05-07T05:17:48;101177.06;;;14.28;100.00
9249;BME280;4660;41.768;26.198;2023-05-07T05:20:14;101169.72;;;14.21;100.00
9249;BME280;4660;41.768;26.198;2023-05-07T05:22:41;101183.56;;;14.36;100.00
9249;BME280;4660;41.768;26.198;2023-05-07T05:25:07;101182.09;;;14.41;100.00
9249;BME280;4660;41.768;26.198;2023-05-07T05:27:34;101195.53;;;14.61;100.00
9249;BME280;4660;41.768;26.198;2023-05-07T05:30:00;101172.13;;;14.42;100.00
9249;BME280;4660;41.768;26.198;2023-05-07T05:32:25;101187.91;;;14.64;100.00
9249;BME280;4660;41.768;26.198;2023-05-07T05:34:51;101193.03;;;14.67;100.00
9249;BME280;4660;41.768;26.198;2023-05-07T05:37:16;101173.47;;;14.55;100.00
9249;BME280;4660;41.768;26.198;2023-05-07T05:39:42;101183.75;;;14.70;100.00
9249;BME280;4660;41.768;26.198;2023-05-07T05:42:10;101196.00;;;15.00;100.00
9249;BME280;4660;41.768;26.198;2023-05-07T05:44:35;101186.22;;;15.07;100.00
9249;BME280;4660;41.768;26.198;2023-05-07T05:47:01;101176.66;;;15.21;100.00
9249;BME280;4660;41.768;26.198;2023-05-07T05:49:26;101184.44;;;15.50;100.00
9249;BME280;4660;41.768;26.198;2023-05-07T05:51:52;101197.28;;;15.65;100.00
9249;BME280;4660;41.768;26.198;2023-05-07T05:54:17;101175.72;;;15.64;100.00
9249;BME280;4660;41.768;26.198;2023-05-07T05:56:43;101189.44;;;15.62;100.00
9249;BME280;4660;41.768;26.198;2023-05-07T05:59:09;101197.59;;;15.62;100.00
9249;BME280;4660;41.768;26.198;2023-05-07T06:01:35;101183.31;;;15.60;100.00
9249;BME280;4660;41.768;26.198;2023-05-07T06:04:01;101174.13;;;15.79;100.00
9249;BME280;4660;41.768;26.198;2023-05-07T06:06:26;101185.00;;;15.95;100.00
9249;BME280;4660;41.768;26.198;2023-05-07T06:08:52;101191.50;;;16.19;100.00
9249;BME280;4660;41.768;26.198;2023-05-07T06:11:18;101185.53;;;16.07;100.00
9249;BME280;4660;41.768;26.198;2023-05-07T06:13:43;101186.63;;;16.31;100.00
9249;BME280;4660;41.768;26.198;2023-05-07T06:16:09;101174.75;;;16.48;100.00
9249;BME280;4660;41.768;26.198;2023-05-07T06:18:35;101191.41;;;16.61;100.00
9249;BME280;4660;41.768;26.198;2023-05-07T06:21:03;101187.69;;;16.78;100.00
9249;BME280;4660;41.768;26.198;2023-05-07T06:23:29;101169.69;;;16.86;100.00
9249;BME280;4660;41.768;26.198;2023-05-07T06:25:55;101166.28;;;16.92;100.00
9249;BME280;4660;41.768;26.198;2023-05-07T06:28:20;101182.19;;;17.27;100.00
9249;BME280;4660;41.768;26.198;2023-05-07T06:30:47;101182.69;;;17.39;100.00
9249;BME280;4660;41.768;26.198;2023-05-07T06:33:14;101188.78;;;17.41;100.00
9249;BME280;4660;41.768;26.198;2023-05-07T06:35:39;101174.34;;;17.41;100.00
9249;BME280;4660;41.768;26.198;2023-05-07T06:38:05;101189.28;;;17.53;100.00
9249;BME280;4660;41.768;26.198;2023-05-07T06:40:31;101186.34;;;17.63;100.00
9249;BME280;4660;41.768;26.198;2023-05-07T06:42:57;101193.50;;;17.72;100.00
9249;BME280;4660;41.768;26.198;2023-05-07T06:45:22;101183.28;;;17.74;100.00
9249;BME280;4660;41.768;26.198;2023-05-07T06:47:49;101187.09;;;17.96;100.00
9249;BME280;4660;41.768;26.198;2023-05-07T06:50:15;101200.06;;;17.85;100.00
9249;BME280;4660;41.768;26.198;2023-05-07T06:52:42;101176.75;;;17.83;100.00
9249;BME280;4660;41.768;26.198;2023-05-07T06:55:09;101197.03;;;18.11;100.00
9249;BME280;4660;41.768;26.198;2023-05-07T06:57:35;101189.78;;;18.27;100.00
9249;BME280;4660;41.768;26.198;2023-05-07T07:00:00;101198.03;;;18.41;100.00
9249;BME280;4660;41.768;26.198;2023-05-07T07:02:26;101198.94;;;18.57;100.00
9249;BME280;4660;41.768;26.198;2023-05-07T07:04:52;101191.53;;;18.51;100.00
9249;BME280;4660;41.768;26.198;2023-05-07T07:07:18;101203.16;;;18.67;100.00
9249;BME280;4660;41.768;26.198;2023-05-07T07:09:43;101175.44;;;18.56;100.00
9249;BME280;4660;41.768;26.198;2023-05-07T07:12:09;101153.13;;;18.37;100.00
9249;BME280;4660;41.768;26.198;2023-05-07T07:14:34;101186.63;;;18.69;100.00
9249;BME280;4660;41.768;26.198;2023-05-07T07:17:00;101201.59;;;18.73;100.00
9249;BME280;4660;41.768;26.198;2023-05-07T07:19:26;101199.38;;;18.91;100.00
9249;BME280;4660;41.768;26.198;2023-05-07T07:21:51;101193.31;;;19.19;100.00
9249;BME280;4660;41.768;26.198;2023-05-07T07:24:17;101193.25;;;19.27;100.00
9249;BME280;4660;41.768;26.198;2023-05-07T07:26:47;101187.41;;;19.30;100.00
9249;BME280;4660;41.768;26.198;2023-05-07T07:29:13;101195.97;;;19.27;100.00
9249;BME280;4660;41.768;26.198;2023-05-07T07:31:39;101169.13;;;19.01;100.00
9249;BME280;4660;41.768;26.198;2023-05-07T07:34:05;101206.69;;;19.29;100.00
9249;BME280;4660;41.768;26.198;2023-05-07T07:36:31;101166.59;;;19.14;100.00
9249;BME280;4660;41.768;26.198;2023-05-07T07:38:56;101183.75;;;19.52;100.00
9249;BME280;4660;41.768;26.198;2023-05-07T07:41:25;101181.59;;;19.48;92.84
9249;BME280;4660;41.768;26.198;2023-05-07T07:43:52;101201.94;;;19.90;88.03
9249;BME280;4660;41.768;26.198;2023-05-07T07:46:18;101164.44;;;19.84;83.35
9249;BME280;4660;41.768;26.198;2023-05-07T07:48:51;101171.44;;;19.86;80.30
9249;BME280;4660;41.768;26.198;2023-05-07T07:51:17;101187.97;;;19.99;79.45
9249;BME280;4660;41.768;26.198;2023-05-07T07:53:43;101220.06;;;20.12;76.51
9249;BME280;4660;41.768;26.198;2023-05-07T07:56:09;101217.53;;;20.11;74.92
9249;BME280;4660;41.768;26.198;2023-05-07T07:58:36;101221.78;;;19.98;73.29
9249;BME280;4660;41.768;26.198;2023-05-07T08:01:03;101220.81;;;20.06;72.04
9249;BME280;4660;41.768;26.198;2023-05-07T08:03:32;101208.44;;;20.25;74.14
9249;BME280;4660;41.768;26.198;2023-05-07T08:05:58;101174.56;;;20.04;70.94
9249;BME280;4660;41.768;26.198;2023-05-07T08:08:24;101225.25;;;20.22;72.14
9249;BME280;4660;41.768;26.198;2023-05-07T08:10:49;101205.78;;;20.46;69.92
9249;BME280;4660;41.768;26.198;2023-05-07T08:13:16;101131.28;;;20.01;66.23
9249;BME280;4660;41.768;26.198;2023-05-07T08:15:41;101191.16;;;20.39;68.35
9249;BME280;4660;41.768;26.198;2023-05-07T08:18:08;101210.41;;;20.46;66.14
9249;BME280;4660;41.768;26.198;2023-05-07T08:20:35;101195.50;;;20.33;66.04
9249;BME280;4660;41.768;26.198;2023-05-07T08:23:05;101209.75;;;20.65;65.39
9249;BME280;4660;41.768;26.198;2023-05-07T08:25:35;101210.25;;;20.75;66.99
9249;BME280;4660;41.768;26.198;2023-05-07T08:28:01;101219.22;;;20.91;64.39
9249;BME280;4660;41.768;26.198;2023-05-07T08:30:29;101209.06;;;20.84;65.42
9249;BME280;4660;41.768;26.198;2023-05-07T08:32:57;101219.09;;;20.99;64.58
9249;BME280;4660;41.768;26.198;2023-05-07T08:35:22;101197.06;;;21.07;65.61
9249;BME280;4660;41.768;26.198;2023-05-07T08:37:48;101202.53;;;21.07;64.26
9249;BME280;4660;41.768;26.198;2023-05-07T08:40:15;101197.63;;;20.96;62.84
9249;BME280;4660;41.768;26.198;2023-05-07T08:42:41;101221.34;;;21.16;61.38
9249;BME280;4660;41.768;26.198;2023-05-07T08:45:10;101206.63;;;21.17;61.11
9249;BME280;4660;41.768;26.198;2023-05-07T08:47:44;101175.88;;;21.15;61.25
9249;BME280;4660;41.768;26.198;2023-05-07T08:50:11;101195.53;;;21.26;59.06
9249;BME280;4660;41.768;26.198;2023-05-07T08:52:37;101189.38;;;21.17;61.57
9249;BME280;4660;41.768;26.198;2023-05-07T08:55:06;101192.66;;;21.34;59.73
9249;BME280;4660;41.768;26.198;2023-05-07T08:57:32;101195.28;;;21.49;57.62
9249;BME280;4660;41.768;26.198;2023-05-07T09:00:00;101189.72;;;21.35;56.32
9249;BME280;4660;41.768;26.198;2023-05-07T09:02:25;101186.38;;;21.40;55.49
9249;BME280;4660;41.768;26.198;2023-05-07T09:04:52;101181.25;;;21.58;53.70
9249;BME280;4660;41.768;26.198;2023-05-07T09:07:19;101190.38;;;21.79;53.30
9249;BME280;4660;41.768;26.198;2023-05-07T09:09:46;101187.94;;;21.97;52.44
9249;BME280;4660;41.768;26.198;2023-05-07T09:12:12;101189.25;;;22.01;52.86
9249;BME280;4660;41.768;26.198;2023-05-07T09:14:38;101200.13;;;21.88;52.59
9249;BME280;4660;41.768;26.198;2023-05-07T09:17:04;101188.31;;;21.81;54.18
9249;BME280;4660;41.768;26.198;2023-05-07T09:19:30;101197.84;;;21.98;53.07
9249;BME280;4660;41.768;26.198;2023-05-07T09:22:01;101190.59;;;22.18;50.72
9249;BME280;4660;41.768;26.198;2023-05-07T09:24:28;101151.69;;;21.95;49.91
9249;BME280;4660;41.768;26.198;2023-05-07T09:27:01;101184.25;;;22.11;51.64
9249;BME280;4660;41.768;26.198;2023-05-07T09:29:30;101179.97;;;22.02;51.71
9249;BME280;4660;41.768;26.198;2023-05-07T09:32:01;101192.28;;;22.26;52.38
9249;BME280;4660;41.768;26.198;2023-05-07T09:34:27;101183.84;;;22.28;52.47
9249;BME280;4660;41.768;26.198;2023-05-07T09:36:53;101188.13;;;22.37;53.20
9249;BME280;4660;41.768;26.198;2023-05-07T09:39:19;101186.44;;;22.49;52.00
9249;BME280;4660;41.768;26.198;2023-05-07T09:41:46;101161.00;;;22.07;51.68
9249;BME280;4660;41.768;26.198;2023-05-07T09:44:13;101184.88;;;22.13;51.29
9249;BME280;4660;41.768;26.198;2023-05-07T09:46:43;101169.47;;;22.12;51.72
9249;BME280;4660;41.768;26.198;2023-05-07T09:49:17;101151.50;;;21.96;52.25
9249;BME280;4660;41.768;26.198;2023-05-07T09:51:48;101129.13;;;21.93;51.66
9249;BME280;4660;41.768;26.198;2023-05-07T09:54:16;101141.22;;;22.12;51.95
9249;BME280;4660;41.768;26.198;2023-05-07T09:56:45;101121.88;;;22.40;50.10
9249;BME280;4660;41.768;26.198;2023-05-07T09:59:15;101148.44;;;22.33;52.43
9249;BME280;4660;41.768;26.198;2023-05-07T10:01:43;101158.63;;;22.52;53.06
9249;BME280;4660;41.768;26.198;2023-05-07T10:04:10;101138.78;;;22.37;50.02
9249;BME280;4660;41.768;26.198;2023-05-07T10:06:37;101140.06;;;22.61;51.33
9249;BME280;4660;41.768;26.198;2023-05-07T10:09:03;101147.44;;;22.73;49.60
9249;BME280;4660;41.768;26.198;2023-05-07T10:11:35;101143.63;;;22.68;49.64
9249;BME280;4660;41.768;26.198;2023-05-07T10:14:03;101169.63;;;22.92;51.57
9249;BME280;4660;41.768;26.198;2023-05-07T10:16:32;101145.09;;;22.77;49.82
9249;BME280;4660;41.768;26.198;2023-05-07T10:19:06;101108.41;;;22.38;46.93
9249;BME280;4660;41.768;26.198;2023-05-07T10:21:37;101092.13;;;22.10;46.89
9249;BME280;4660;41.768;26.198;2023-05-07T10:24:09;101051.41;;;22.01;46.16
9249;BME280;4660;41.768;26.198;2023-05-07T10:26:44;101156.34;;;22.95;44.70
9249;BME280;4660;41.768;26.198;2023-05-07T10:29:37;101086.66;;;22.70;44.51
9249;BME280;4660;41.768;26.198;2023-05-07T10:32:09;101130.94;;;23.26;43.47
9249;BME280;4660;41.768;26.198;2023-05-07T10:34:43;101131.63;;;23.09;45.02
9249;BME280;4660;41.768;26.198;2023-05-07T10:37:15;101150.63;;;23.17;45.49
9249;BME280;4660;41.768;26.198;2023-05-07T10:39:41;101137.69;;;23.37;44.86
9249;BME280;4660;41.768;26.198;2023-05-07T10:42:11;101126.13;;;23.15;45.05
9249;BME280;4660;41.768;26.198;2023-05-07T10:44:44;101145.97;;;22.97;46.75
9249;BME280;4660;41.768;26.198;2023-05-07T10:47:11;101145.34;;;22.95;46.86
9249;BME280;4660;41.768;26.198;2023-05-07T10:52:13;101139.63;;;22.44;48.35
9249;BME280;4660;41.768;26.198;2023-05-07T10:54:41;101118.94;;;22.61;49.70
9249;BME280;4660;41.768;26.198;2023-05-07T10:57:32;101130.34;;;23.04;46.45
9249;BME280;4660;41.768;26.198;2023-05-07T10:59:58;101128.22;;;23.13;46.45
9249;BME280;4660;41.768;26.198;2023-05-07T11:05:26;101118.00;;;23.47;46.65
9249;BME280;4660;41.768;26.198;2023-05-07T11:07:56;101123.44;;;23.60;46.95
9249;BME280;4660;41.768;26.198;2023-05-07T11:10:22;101120.13;;;23.45;47.78
9249;BME280;4660;41.768;26.198;2023-05-07T11:12:48;101123.84;;;23.70;46.44
9249;BME280;4660;41.768;26.198;2023-05-07T11:15:15;101110.25;;;23.88;45.59
9249;BME280;4660;41.768;26.198;2023-05-07T11:17:55;101123.41;;;24.18;43.62
9249;BME280;4660;41.768;26.198;2023-05-07T11:20:40;101120.66;;;24.18;43.52
9249;BME280;4660;41.768;26.198;2023-05-07T11:26:04;101126.75;;;23.88;44.25
9249;BME280;4660;41.768;26.198;2023-05-07T11:28:31;101121.75;;;23.72;45.66
9249;BME280;4660;41.768;26.198;2023-05-07T11:31:02;101113.38;;;23.92;45.56
9249;BME280;4660;41.768;26.198;2023-05-07T11:33:32;101122.91;;;24.28;46.04
9249;BME280;4660;41.768;26.198;2023-05-07T11:35:59;101122.47;;;24.37;45.01
9249;BME280;4660;41.768;26.198;2023-05-07T11:38:25;101083.56;;;23.96;45.33
9249;BME280;4660;41.768;26.198;2023-05-07T11:40:53;101123.06;;;24.39;45.86
9249;BME280;4660;41.768;26.198;2023-05-07T11:43:19;101103.34;;;24.74;44.51
9249;BME280;4660;41.768;26.198;2023-05-07T11:45:49;101120.41;;;24.83;43.66
9249;BME280;4660;41.768;26.198;2023-05-07T11:48:15;101114.09;;;24.76;44.44
9249;BME280;4660;41.768;26.198;2023-05-07T11:51:00;101097.81;;;24.74;43.36
9249;BME280;4660;41.768;26.198;2023-05-07T11:53:27;101127.09;;;24.68;43.90
9249;BME280;4660;41.768;26.198;2023-05-07T11:55:55;101110.63;;;24.62;43.89
9249;BME280;4660;41.768;26.198;2023-05-07T11:58:23;101111.63;;;24.67;43.74
9249;BME280;4660;41.768;26.198;2023-05-07T12:00:50;101113.47;;;24.49;43.66
9249;BME280;4660;41.768;26.198;2023-05-07T12:03:16;101086.94;;;24.61;43.45
9249;BME280;4660;41.768;26.198;2023-05-07T12:05:43;101099.44;;;25.07;44.72
9249;BME280;4660;41.768;26.198;2023-05-07T12:08:14;101101.75;;;25.10;43.45
9249;BME280;4660;41.768;26.198;2023-05-07T12:10:41;101080.81;;;25.02;41.90
9249;BME280;4660;41.768;26.198;2023-05-07T12:13:23;101107.44;;;25.15;42.62
9249;BME280;4660;41.768;26.198;2023-05-07T12:15:56;101105.09;;;25.12;41.73
9249;BME280;4660;41.768;26.198;2023-05-07T12:18:23;101091.81;;;25.27;41.70
9249;BME280;4660;41.768;26.198;2023-05-07T12:20:50;101088.97;;;25.52;41.38
9249;BME280;4660;41.768;26.198;2023-05-07T12:23:16;101055.16;;;25.45;41.21
9249;BME280;4660;41.768;26.198;2023-05-07T12:25:43;101085.63;;;25.98;39.73
9249;BME280;4660;41.768;26.198;2023-05-07T12:28:19;101077.34;;;25.98;38.62
9249;BME280;4660;41.768;26.198;2023-05-07T12:30:47;101075.44;;;25.50;39.86
9249;BME280;4660;41.768;26.198;2023-05-07T12:33:17;101067.78;;;25.52;39.59
9249;BME280;4660;41.768;26.198;2023-05-07T12:35:43;101061.09;;;25.60;39.59
9249;BME280;4660;41.768;26.198;2023-05-07T12:38:10;101053.59;;;25.49;39.79
9249;BME280;4660;41.768;26.198;2023-05-07T12:40:46;101074.00;;;25.30;41.12
9249;BME280;4660;41.768;26.198;2023-05-07T12:43:19;101049.44;;;25.10;40.22
9249;BME280;4660;41.768;26.198;2023-05-07T12:45:47;101067.56;;;24.92;40.48
9249;BME280;4660;41.768;26.198;2023-05-07T12:48:14;101055.34;;;24.88;40.19
9249;BME280;4660;41.768;26.198;2023-05-07T12:50:40;101055.66;;;24.98;39.87
9249;BME280;4660;41.768;26.198;2023-05-07T12:53:06;101054.00;;;25.34;39.29
9249;BME280;4660;41.768;26.198;2023-05-07T12:55:42;101027.69;;;25.20;38.45
9249;BME280;4660;41.768;26.198;2023-05-07T12:58:08;101057.50;;;25.60;38.91
9249;BME280;4660;41.768;26.198;2023-05-07T13:00:39;101058.91;;;25.50;39.01
9249;BME280;4660;41.768;26.198;2023-05-07T13:03:05;101040.53;;;25.26;37.93